Toughkenamon, Pennsylvania
Current Conditions -  °F | °C
As of 7:55 PM on Saturday 22 Nov 2014 (Local Time) from KMQS Reporting Station
Overcast Overcast  
Wind Chill: 36°   Ceiling: 11000
Heat Index: 39°   Visibility: 10mi
Dew Point: 23°   Wind: 5mph
Humidity: 52%   Direction: 210°SSW
Pressure: 30.26"   Gusts: NA
Location:  39.83°N, 75.76°W
Report Text: KMQS 230055Z AUTO 21004KT 10SM FEW070 OVC110 04/M05 A3026 RMK AO2
Loading
Personal Weather Stations






























Interactive Weather Map New forecast layout! Learn more

10-Day Weather Forecast

Advertisements
Track Severe Weather on mobile